Mountain Home, ID

14:30:MST den 06. mars 2015 (GMT -0700)
NonFedAWOS MOUNTAIN HOME ID US SUPERAWOS | Change Station
CLOSE
Current Station
Personlig værstasjon
Location: Mountain Home, ID
Høyde over havet: 3160 ft
Nearby Weather Stations

H.o.h 3160 ft 43.13 °N, 115.73 °W | Updated 55 minutes ago

Klart
Klart
54 °F
Feels Like 54 °F
N
5
Vind Variabel Vind from V
Gusts 0.0 mph

I dag
High -- | Low -- °F
--% Chance of Precip.
I går
High -- | Low -- °F
Precip. -- tommer
7:10 AM 6:38 PM
Fullmåne, 99% visible
Lufttrykk 30.43 tommer
Sikt 10.0 eng. mil
Skyet Klart
Duggpunkt 27 °F
Fuktighet 35%
Regn tommer
Snødybde Not available.
UV 5 av 12
Pollen 3.00 av 12
Luftkvalitet Not available.
Flu Activity Not available.
METAR KMUO 062058Z AUTO 30004KT 10SM CLR 13/M06 A3039 RMK AO2 SLP304 T01311056 57021 $

More Conditions Fewer Conditions

Lufttrykk 30.43 tommer
Sikt 10.0 eng. mil
Skyet Klart
Duggpunkt 27 °F
Fuktighet 35%
Regn tommer
Snødybde Not available.
UV 5 av 12
Pollen 3.00 av 12
Luftkvalitet Not available.
Flu Activity Not available.
METAR KMUO 062058Z AUTO 30004KT 10SM CLR 13/M06 A3039 RMK AO2 SLP304 T01311056 57021 $

More Conditions Fewer Conditions

10-Day Weather Forecast

Almanac

Astronomi

Mar. 06, 2015 Oppgang Nedgang
Virkelig tid
Tussmørke
Nautisk skumring
Astronomisk skumring
Månen
Lengde av synlig lys
Dagens lengde
Tomorrow will be .
, % of the Moon is Illuminated

Dagens maks og min

State Highs State Lows

Community

WunderPhotos

Upload Photos

1,803,406 photos uploaded!

WunderBlogs® & News

Nearby

Luftkvalitet

  Luftkvalitet AQ Indeks Forurensing
Not available.

Snødybde

Stasjon Depth Høyde over havet

Earthquake Activity

By Distance Mag. Time & Date
Minimum magnitude displayed is 2.5.

Coastal Water Temperatures

Sted Temperatur

Nearby Weather Stations